createdAt,value
2018-09-02T00:00:00.428Z,10.60
2018-09-02T00:02:35.725Z,10.87
2018-09-02T00:05:08.014Z,11.17
2018-09-02T00:07:42.997Z,12.10
2018-09-02T00:10:16.237Z,11.23
2018-09-02T00:12:52.405Z,10.87
2018-09-02T00:15:28.085Z,10.23
2018-09-02T00:18:04.127Z,10.70
2018-09-02T00:20:36.100Z,10.70
2018-09-02T00:23:09.548Z,11.10
2018-09-02T00:25:41.788Z,10.43
2018-09-02T00:28:13.308Z,11.00
2018-09-02T00:30:48.161Z,10.13
2018-09-02T00:33:27.838Z,10.63
2018-09-02T00:36:07.249Z,10.87
2018-09-02T00:38:46.688Z,9.77
2018-09-02T00:41:25.883Z,10.20
2018-09-02T00:43:58.393Z,10.03
2018-09-02T00:46:30.822Z,9.87
2018-09-02T00:49:02.714Z,9.80
2018-09-02T00:51:38.242Z,10.07
2018-09-02T00:54:10.943Z,10.07
2018-09-02T00:56:43.162Z,9.90
2018-09-02T00:59:18.318Z,9.97
2018-09-02T01:01:54.211Z,9.57
2018-09-02T01:04:30.081Z,8.63
2018-09-02T01:07:01.921Z,8.80
2018-09-02T01:09:34.062Z,8.90
2018-09-02T01:12:07.270Z,8.90
2018-09-02T01:14:41.173Z,9.13
2018-09-02T01:17:14.130Z,8.50
2018-09-02T01:19:47.450Z,9.10
2018-09-02T01:22:20.311Z,8.87
2018-09-02T01:24:55.400Z,8.40
2018-09-02T01:27:31.039Z,8.80
2018-09-02T01:30:03.599Z,9.10
2018-09-02T01:32:35.918Z,8.53
2018-09-02T01:35:15.818Z,8.50
2018-09-02T01:37:51.718Z,9.20
2018-09-02T01:40:26.935Z,9.20
2018-09-02T01:43:02.581Z,8.83
2018-09-02T01:45:33.413Z,8.47
2018-09-02T01:48:07.202Z,8.10
2018-09-02T01:50:42.728Z,8.80
2018-09-02T01:53:15.607Z,8.63
2018-09-02T01:55:51.358Z,9.00
2018-09-02T01:58:23.870Z,8.80
2018-09-02T02:00:59.463Z,8.23
2018-09-02T02:03:34.177Z,8.40
2018-09-02T02:06:10.341Z,8.00
2018-09-02T02:08:49.222Z,8.73
2018-09-02T02:11:24.480Z,7.90
2018-09-02T02:13:57.401Z,7.10
2018-09-02T02:16:29.751Z,6.83
2018-09-02T02:19:04.929Z,6.73
2018-09-02T02:21:42.206Z,6.37
2018-09-02T02:24:20.237Z,6.77
2018-09-02T02:26:56.595Z,7.00
2018-09-02T02:29:31.982Z,6.17
2018-09-02T02:32:05.551Z,7.27
2018-09-02T02:34:37.181Z,7.03
2018-09-02T02:37:12.134Z,7.23
2018-09-02T02:39:43.914Z,6.83
2018-09-02T02:42:19.205Z,6.77
2018-09-02T02:44:58.929Z,6.73
2018-09-02T02:47:30.658Z,7.13
2018-09-02T02:50:02.721Z,6.50
2018-09-02T02:52:39.248Z,6.37
2018-09-02T02:55:12.498Z,6.57
2018-09-02T02:57:45.348Z,6.67
2018-09-02T03:00:21.516Z,6.17
2018-09-02T03:02:57.960Z,6.03
2018-09-02T03:05:34.201Z,5.60
2018-09-02T03:08:06.565Z,6.00
2018-09-02T03:10:38.212Z,6.40
2018-09-02T03:13:18.255Z,6.80
2018-09-02T03:15:57.578Z,7.10
2018-09-02T03:18:30.268Z,7.00
2018-09-02T03:21:05.504Z,6.33
2018-09-02T03:23:40.716Z,5.83
2018-09-02T03:26:20.326Z,6.30
2018-09-02T03:28:52.256Z,6.33
2018-09-02T03:31:24.275Z,6.53
2018-09-02T03:33:56.067Z,6.70
2018-09-02T03:36:27.726Z,7.07
2018-09-02T03:38:59.046Z,6.70
2018-09-02T03:41:31.458Z,6.53
2018-09-02T03:44:03.366Z,6.93
2018-09-02T03:46:36.937Z,6.90
2018-09-02T03:49:10.528Z,7.47
2018-09-02T03:51:46.670Z,7.00
2018-09-02T03:54:22.404Z,7.40
2018-09-02T03:56:54.663Z,6.70
2018-09-02T03:59:31.944Z,7.20
2018-09-02T04:02:07.484Z,6.97
2018-09-02T04:04:40.416Z,7.50
2018-09-02T04:07:14.294Z,7.90
2018-09-02T04:09:47.073Z,7.47
2018-09-02T04:12:18.825Z,7.30
2018-09-02T04:14:53.391Z,7.67
2018-09-02T04:17:24.982Z,7.87
2018-09-02T04:19:59.311Z,7.53
2018-09-02T04:22:38.913Z,7.57
2018-09-02T04:25:19.026Z,7.20
2018-09-02T04:27:51.663Z,7.43
2018-09-02T04:30:28.990Z,7.77
2018-09-02T04:33:06.208Z,7.80
2018-09-02T04:35:41.500Z,8.03
2018-09-02T04:38:12.871Z,7.33
2018-09-02T04:40:49.662Z,7.93
2018-09-02T04:43:24.527Z,8.40
2018-09-02T04:45:56.517Z,6.83
2018-09-02T04:48:35.967Z,7.03
2018-09-02T04:51:16.304Z,5.70
2018-09-02T04:53:53.609Z,6.53
2018-09-02T04:56:31.420Z,6.77
2018-09-02T04:59:09.504Z,6.93
2018-09-02T05:01:49.170Z,6.90
2018-09-02T05:04:27.487Z,6.93
2018-09-02T05:07:01.277Z,6.77
2018-09-02T05:09:37.172Z,6.43
2018-09-02T05:12:12.967Z,6.33
2018-09-02T05:14:47.757Z,6.00
2018-09-02T05:17:23.046Z,6.50
2018-09-02T05:19:58.504Z,6.10
2018-09-02T05:22:33.254Z,5.90
2018-09-02T05:25:05.354Z,6.03
2018-09-02T05:27:39.157Z,5.50
2018-09-02T05:30:11.004Z,6.20
2018-09-02T05:32:42.665Z,6.47
2018-09-02T05:35:19.562Z,6.30
2018-09-02T05:37:56.357Z,6.47
2018-09-02T05:40:32.373Z,6.60
2018-09-02T05:43:08.113Z,6.40
2018-09-02T05:45:41.422Z,5.80
2018-09-02T05:48:15.559Z,5.97
2018-09-02T05:50:50.606Z,5.23
2018-09-02T05:53:22.070Z,5.53
2018-09-02T05:55:54.141Z,5.87
2018-09-02T05:58:25.530Z,5.93
2018-09-02T06:00:57.410Z,6.70
2018-09-02T06:03:29.569Z,6.73
2018-09-02T06:06:02.873Z,6.33
2018-09-02T06:08:35.379Z,6.13
2018-09-02T06:11:07.033Z,5.80
2018-09-02T06:13:40.179Z,6.03
2018-09-02T06:16:13.500Z,5.60
2018-09-02T06:18:45.685Z,6.03
2018-09-02T06:21:17.450Z,6.47
2018-09-02T06:23:53.429Z,6.00
2018-09-02T06:26:29.245Z,6.43
2018-09-02T06:29:02.165Z,6.60
2018-09-02T06:31:34.495Z,6.70
2018-09-02T06:34:06.535Z,6.60
2018-09-02T06:36:38.521Z,6.83
2018-09-02T06:39:12.895Z,6.80
2018-09-02T06:41:48.093Z,6.90
2018-09-02T06:44:20.658Z,6.67
2018-09-02T06:46:53.338Z,6.60
2018-09-02T06:49:27.879Z,7.00
2018-09-02T06:52:00.749Z,6.80
2018-09-02T06:54:36.477Z,6.73
2018-09-02T06:57:10.986Z,6.77
2018-09-02T06:59:46.641Z,7.00
2018-09-02T07:02:20.971Z,6.97
2018-09-02T07:04:54.701Z,5.83
2018-09-02T07:07:26.652Z,5.83
2018-09-02T07:10:02.563Z,5.70
2018-09-02T07:12:37.585Z,6.73
2018-09-02T07:15:13.523Z,6.27
2018-09-02T07:17:50.090Z,6.47
2018-09-02T07:20:28.130Z,5.47
2018-09-02T07:23:05.976Z,5.03
2018-09-02T07:25:41.414Z,5.33
2018-09-02T07:28:13.446Z,5.40
2018-09-02T07:30:45.125Z,5.40
2018-09-02T07:33:19.899Z,4.70
2018-09-02T07:35:55.662Z,4.23
2018-09-02T07:38:35.400Z,4.40
2018-09-02T07:41:09.822Z,4.20
2018-09-02T07:43:42.489Z,3.80
2018-09-02T07:46:14.193Z,4.30
2018-09-02T07:48:52.032Z,4.07
2018-09-02T07:51:27.770Z,3.63
2018-09-02T07:54:03.052Z,4.10
2018-09-02T07:56:37.646Z,4.17
2018-09-02T07:59:14.002Z,4.20
2018-09-02T08:01:49.930Z,4.33
2018-09-02T08:04:23.890Z,4.30
2018-09-02T08:07:00.711Z,3.77
2018-09-02T08:09:33.894Z,3.77
2018-09-02T08:12:07.710Z,3.50
2018-09-02T08:14:44.791Z,3.30
2018-09-02T08:17:21.126Z,3.20
2018-09-02T08:19:57.489Z,3.07
2018-09-02T08:22:30.764Z,2.80
2018-09-02T08:25:08.001Z,3.07
2018-09-02T08:27:45.003Z,4.47
2018-09-02T08:30:19.064Z,3.97
2018-09-02T08:32:52.209Z,4.00
2018-09-02T08:35:25.302Z,3.90
2018-09-02T08:37:58.451Z,3.97
2018-09-02T08:40:30.942Z,3.50
2018-09-02T08:43:02.612Z,3.47
2018-09-02T08:45:39.432Z,5.03
2018-09-02T08:48:16.538Z,4.90
2018-09-02T08:50:51.868Z,4.53
2018-09-02T08:53:27.749Z,4.73
2018-09-02T08:55:59.496Z,4.43
2018-09-02T08:58:33.819Z,4.10
2018-09-02T09:01:05.539Z,3.80
2018-09-02T09:03:37.679Z,4.20
2018-09-02T09:06:13.410Z,3.57
2018-09-02T09:08:49.883Z,3.60
2018-09-02T09:11:26.092Z,3.77
2018-09-02T09:13:58.770Z,3.70
2018-09-02T09:16:32.358Z,3.37
2018-09-02T09:19:03.852Z,2.90
2018-09-02T09:21:43.401Z,2.50
2018-09-02T09:24:18.841Z,2.77
2018-09-02T09:26:56.903Z,2.90
2018-09-02T09:29:33.068Z,2.80
2018-09-02T09:32:12.610Z,3.50
2018-09-02T09:34:51.477Z,3.20
2018-09-02T09:37:31.250Z,2.83
2018-09-02T09:40:06.920Z,2.30
2018-09-02T09:42:40.160Z,2.83
2018-09-02T09:45:15.292Z,2.50
2018-09-02T09:47:47.370Z,2.50
2018-09-02T09:50:23.371Z,2.60
2018-09-02T09:52:55.832Z,2.10
2018-09-02T09:55:35.757Z,2.37
2018-09-02T09:58:10.763Z,2.13
2018-09-02T10:00:54.013Z,2.40
2018-09-02T10:03:26.251Z,2.33
2018-09-02T10:05:59.512Z,2.00
2018-09-02T10:08:32.943Z,2.00
2018-09-02T10:11:07.341Z,2.00
2018-09-02T10:13:44.100Z,2.13
2018-09-02T10:16:20.606Z,2.23
2018-09-02T10:18:53.646Z,2.03
2018-09-02T10:21:26.018Z,2.20
2018-09-02T10:23:58.285Z,2.20
2018-09-02T10:26:32.597Z,2.30
2018-09-02T10:29:07.945Z,2.10
2018-09-02T10:31:43.427Z,1.90
2018-09-02T10:34:18.272Z,1.90
2018-09-02T10:36:53.675Z,1.90
2018-09-02T10:39:28.222Z,2.10
2018-09-02T10:42:01.377Z,2.30
2018-09-02T10:44:33.263Z,2.03
2018-09-02T10:47:04.653Z,2.30
2018-09-02T10:49:40.447Z,2.10
2018-09-02T10:52:14.433Z,2.20
2018-09-02T10:54:49.680Z,2.57
2018-09-02T10:57:25.698Z,2.43
2018-09-02T10:59:59.924Z,2.23
2018-09-02T11:02:34.924Z,2.30
2018-09-02T11:05:14.143Z,2.10
2018-09-02T11:07:50.430Z,2.20
2018-09-02T11:10:25.777Z,2.20
2018-09-02T11:13:01.623Z,1.90
2018-09-02T11:15:38.936Z,2.00
2018-09-02T11:18:18.810Z,1.90
2018-09-02T11:20:57.168Z,1.80
2018-09-02T11:23:34.440Z,1.90
2018-09-02T11:26:08.717Z,2.03
2018-09-02T11:28:40.519Z,2.30
2018-09-02T11:31:14.167Z,2.20
2018-09-02T11:33:48.932Z,2.10
2018-09-02T11:36:21.412Z,2.10
2018-09-02T11:38:53.622Z,2.27
2018-09-02T11:41:25.142Z,2.20
2018-09-02T11:44:02.256Z,2.20
2018-09-02T11:46:37.010Z,2.57
2018-09-02T11:49:12.153Z,2.47
2018-09-02T11:51:49.734Z,2.53
2018-09-02T11:54:25.424Z,2.43
2018-09-02T11:56:58.315Z,2.33
2018-09-02T11:59:29.956Z,2.63
2018-09-02T12:02:05.387Z,2.70
2018-09-02T12:04:37.868Z,2.70
2018-09-02T12:07:09.460Z,2.70
2018-09-02T12:09:45.227Z,2.23
2018-09-02T12:12:18.568Z,3.00
2018-09-02T12:14:54.810Z,2.60
2018-09-02T12:17:26.398Z,2.57
2018-09-02T12:19:59.719Z,2.67
2018-09-02T12:22:32.118Z,2.57
2018-09-02T12:25:04.182Z,2.40
2018-09-02T12:27:37.958Z,2.60
2018-09-02T12:30:10.777Z,2.10
2018-09-02T12:32:42.860Z,2.33
2018-09-02T12:35:19.107Z,2.80
2018-09-02T12:37:55.142Z,2.50
2018-09-02T12:40:27.012Z,2.83
2018-09-02T12:43:00.582Z,2.70
2018-09-02T12:45:32.933Z,2.40
2018-09-02T12:48:10.316Z,2.80
2018-09-02T12:50:42.064Z,2.60
2018-09-02T12:53:18.738Z,2.80
2018-09-02T12:55:58.431Z,2.40
2018-09-02T12:58:35.749Z,2.67
2018-09-02T13:01:10.842Z,3.00
2018-09-02T13:03:44.576Z,2.83
2018-09-02T13:06:19.946Z,3.07
2018-09-02T13:08:56.326Z,3.50
2018-09-02T13:11:32.081Z,3.50
2018-09-02T13:14:05.570Z,3.40
2018-09-02T13:16:40.114Z,3.57
2018-09-02T13:19:16.416Z,3.37
2018-09-02T13:21:53.882Z,3.30
2018-09-02T13:24:29.097Z,3.00
2018-09-02T13:27:00.542Z,3.07
2018-09-02T13:29:32.923Z,2.80
2018-09-02T13:32:06.472Z,2.40
2018-09-02T13:34:39.146Z,2.63
2018-09-02T13:37:15.436Z,2.80
2018-09-02T13:39:49.357Z,2.57
2018-09-02T13:42:21.056Z,2.67
2018-09-02T13:44:53.299Z,2.90
2018-09-02T13:47:26.045Z,3.13
2018-09-02T13:49:59.075Z,3.30
2018-09-02T13:52:30.785Z,3.33
2018-09-02T13:55:06.839Z,3.80
2018-09-02T13:57:39.260Z,3.67
2018-09-02T14:00:13.661Z,3.60
2018-09-02T14:02:46.080Z,3.40
2018-09-02T14:05:19.630Z,3.67
2018-09-02T14:07:51.610Z,3.30
2018-09-02T14:10:24.172Z,3.73
2018-09-02T14:12:55.731Z,3.70
2018-09-02T14:15:27.568Z,3.40
2018-09-02T14:17:59.240Z,3.53
2018-09-02T14:20:33.160Z,3.47
2018-09-02T14:23:07.022Z,2.93
2018-09-02T14:25:41.349Z,2.93
2018-09-02T14:28:14.448Z,2.83
2018-09-02T14:30:47.609Z,2.80
2018-09-02T14:33:19.537Z,2.53
2018-09-02T14:35:53.958Z,2.67
2018-09-02T14:38:25.937Z,3.00
2018-09-02T14:40:57.947Z,2.90
2018-09-02T14:43:34.415Z,2.90
2018-09-02T14:46:08.497Z,3.20
2018-09-02T14:48:41.775Z,3.33
2018-09-02T14:51:15.425Z,2.97
2018-09-02T14:53:47.086Z,2.87
2018-09-02T14:56:24.239Z,2.90
2018-09-02T14:58:59.905Z,2.67
2018-09-02T15:01:37.751Z,2.67
2018-09-02T15:04:12.364Z,3.20
2018-09-02T15:06:44.312Z,3.17
2018-09-02T15:09:17.155Z,3.23
2018-09-02T15:11:50.283Z,3.37
2018-09-02T15:14:25.540Z,3.10
2018-09-02T15:17:05.410Z,3.30
2018-09-02T15:19:41.783Z,3.07
2018-09-02T15:22:13.643Z,3.77
2018-09-02T15:24:46.984Z,3.10
2018-09-02T15:27:19.433Z,3.13
2018-09-02T15:29:58.803Z,3.30
2018-09-02T15:32:35.278Z,3.43
2018-09-02T15:35:08.395Z,3.30
2018-09-02T15:37:39.954Z,3.30
2018-09-02T15:40:15.110Z,3.40
2018-09-02T15:42:47.816Z,3.50
2018-09-02T15:45:20.128Z,3.40
2018-09-02T15:47:55.706Z,3.70
2018-09-02T15:50:29.774Z,3.63
2018-09-02T15:53:04.416Z,3.57
2018-09-02T15:55:40.401Z,4.33
2018-09-02T15:58:12.591Z,4.70
2018-09-02T16:00:46.462Z,4.13
2018-09-02T16:03:23.007Z,3.77
2018-09-02T16:05:56.075Z,4.07
2018-09-02T16:08:32.207Z,4.50
2018-09-02T16:11:08.788Z,4.70
2018-09-02T16:13:45.159Z,4.70
2018-09-02T16:16:16.828Z,5.10
2018-09-02T16:18:48.579Z,5.30
2018-09-02T16:21:23.197Z,5.00
2018-09-02T16:23:56.001Z,5.13
2018-09-02T16:26:27.983Z,4.80
2018-09-02T16:29:01.593Z,5.13
2018-09-02T16:31:34.527Z,5.00
2018-09-02T16:34:08.898Z,5.10
2018-09-02T16:36:41.706Z,5.20
2018-09-02T16:39:13.537Z,4.90
2018-09-02T16:41:49.815Z,4.43
2018-09-02T16:44:24.777Z,5.07
2018-09-02T16:46:56.385Z,4.30
2018-09-02T16:49:31.669Z,4.37
2018-09-02T16:52:07.797Z,4.60
2018-09-02T16:54:44.541Z,4.27
2018-09-02T16:57:20.230Z,4.27
2018-09-02T16:59:54.481Z,4.70
2018-09-02T17:02:32.500Z,4.53
2018-09-02T17:05:23.154Z,4.50
2018-09-02T17:07:59.265Z,4.33
2018-09-02T17:10:34.972Z,4.50
2018-09-02T17:13:13.041Z,4.30
2018-09-02T17:15:45.910Z,4.60
2018-09-02T17:18:24.492Z,4.53
2018-09-02T17:21:05.817Z,4.90
2018-09-02T17:23:42.778Z,4.50
2018-09-02T17:26:20.849Z,4.73
2018-09-02T17:28:53.510Z,4.77
2018-09-02T17:31:27.449Z,4.60
2018-09-02T17:34:02.844Z,4.73
2018-09-02T17:36:35.405Z,4.90
2018-09-02T17:39:10.845Z,4.80
2018-09-02T17:41:50.646Z,4.30
2018-09-02T17:44:25.452Z,4.40
2018-09-02T17:46:57.704Z,5.17
2018-09-02T17:49:32.065Z,4.90
2018-09-02T17:52:04.405Z,5.37
2018-09-02T17:54:40.510Z,5.23
2018-09-02T17:57:17.221Z,5.20
2018-09-02T17:59:51.661Z,4.60
2018-09-02T18:02:24.958Z,5.13
2018-09-02T18:04:59.831Z,4.97
2018-09-02T18:07:36.091Z,5.27
2018-09-02T18:10:12.824Z,5.77
2018-09-02T18:12:44.687Z,5.57
2018-09-02T18:15:16.423Z,5.47
2018-09-02T18:17:48.824Z,6.17
2018-09-02T18:20:20.594Z,5.80
2018-09-02T18:22:52.642Z,6.80
2018-09-02T18:25:23.394Z,7.07
2018-09-02T18:27:58.453Z,7.13
2018-09-02T18:30:28.754Z,7.70
2018-09-02T18:33:00.294Z,7.07
2018-09-02T18:35:32.283Z,7.77
2018-09-02T18:38:12.735Z,7.97
2018-09-02T18:40:52.130Z,7.87
2018-09-02T18:43:32.508Z,7.77
2018-09-02T18:46:08.243Z,8.10
2018-09-02T18:48:47.867Z,8.17
2018-09-02T18:51:18.160Z,8.30
2018-09-02T18:53:49.971Z,7.97
2018-09-02T18:56:25.048Z,8.33
2018-09-02T18:59:06.458Z,7.80
2018-09-02T19:01:38.923Z,8.50
2018-09-02T19:04:10.568Z,8.57
2018-09-02T19:06:42.447Z,8.63
2018-09-02T19:09:13.729Z,8.80
2018-09-02T19:11:45.159Z,9.03
2018-09-02T19:14:16.773Z,8.27
2018-09-02T19:16:49.060Z,8.80
2018-09-02T19:19:21.979Z,8.30
2018-09-02T19:21:52.989Z,8.17
2018-09-02T19:24:26.519Z,9.37
2018-09-02T19:26:57.701Z,8.73
2018-09-02T19:29:28.819Z,9.43
2018-09-02T19:31:59.908Z,9.13
2018-09-02T19:34:31.569Z,10.00
2018-09-02T19:37:02.679Z,10.03
2018-09-02T19:39:33.899Z,10.23
2018-09-02T19:42:05.354Z,9.93
2018-09-02T19:44:37.219Z,9.73
2018-09-02T19:47:08.669Z,9.83
2018-09-02T19:49:40.348Z,10.07
2018-09-02T19:52:11.468Z,9.37
2018-09-02T19:54:43.009Z,10.53
2018-09-02T19:57:14.329Z,10.30
2018-09-02T19:59:44.949Z,10.70
2018-09-02T20:02:16.398Z,9.97
2018-09-02T20:04:48.149Z,9.97
2018-09-02T20:07:19.059Z,9.57
2018-09-02T20:09:50.659Z,10.30
2018-09-02T20:12:21.789Z,10.90
2018-09-02T20:14:53.998Z,10.53
2018-09-02T20:17:25.119Z,11.63
2018-09-02T20:19:56.799Z,10.77
2018-09-02T20:22:27.687Z,10.10
2018-09-02T20:24:59.789Z,9.97
2018-09-02T20:27:30.730Z,9.57
2018-09-02T20:30:01.949Z,9.80
2018-09-02T20:32:32.759Z,9.00
2018-09-02T20:35:03.984Z,9.37
2018-09-02T20:37:34.439Z,9.53
2018-09-02T20:40:06.709Z,9.20
2018-09-02T20:42:38.580Z,8.80
2018-09-02T20:45:10.742Z,9.00
2018-09-02T20:47:42.049Z,8.53
2018-09-02T20:50:17.469Z,8.07
2018-09-02T20:52:48.949Z,8.33
2018-09-02T20:55:20.889Z,7.60
2018-09-02T20:57:53.805Z,7.80
2018-09-02T21:00:24.660Z,8.70
2018-09-02T21:03:10.842Z,8.20
2018-09-02T21:05:52.738Z,8.60
2018-09-02T21:08:28.093Z,8.80
2018-09-02T21:11:08.729Z,8.40
2018-09-02T21:13:45.040Z,8.23
2018-09-02T21:16:23.340Z,8.30
2018-09-02T21:19:01.481Z,8.90
2018-09-02T21:21:46.352Z,8.30
2018-09-02T21:24:20.168Z,8.20
2018-09-02T21:26:54.280Z,8.47
2018-09-02T21:29:29.619Z,7.97
2018-09-02T21:32:27.640Z,8.10
2018-09-02T21:35:18.078Z,8.63
2018-09-02T21:41:35.190Z,8.77
2018-09-02T21:44:17.799Z,8.50
2018-09-02T21:46:55.589Z,8.47
2018-09-02T21:49:34.435Z,9.07
2018-09-02T21:52:12.269Z,9.20
2018-09-02T21:54:50.270Z,9.47
2018-09-02T21:57:25.030Z,10.73
2018-09-02T22:00:00.581Z,11.77
2018-09-02T22:02:33.239Z,11.07
2018-09-02T22:05:05.293Z,12.53
2018-09-02T22:07:44.715Z,11.80
2018-09-02T22:10:15.895Z,12.57
2018-09-02T22:12:47.245Z,12.23
2018-09-02T22:15:18.765Z,12.07
2018-09-02T22:17:51.976Z,11.57
2018-09-02T22:20:23.166Z,10.97
2018-09-02T22:22:54.448Z,10.47
2018-09-02T22:25:25.827Z,11.17
2018-09-02T22:27:57.214Z,10.47
2018-09-02T22:30:29.715Z,10.10
2018-09-02T22:33:01.105Z,10.00
2018-09-02T22:35:31.754Z,9.33
2018-09-02T22:38:03.364Z,9.90
2018-09-02T22:40:34.445Z,10.17
2018-09-02T22:43:06.714Z,11.87
2018-09-02T22:45:40.274Z,11.37
2018-09-02T22:48:11.994Z,12.03
2018-09-02T22:50:43.723Z,13.60
2018-09-02T22:53:15.886Z,14.00
2018-09-02T22:55:55.814Z,12.93
2018-09-02T22:58:35.765Z,12.73
2018-09-02T23:01:15.066Z,11.67
2018-09-02T23:03:55.615Z,12.47
2018-09-02T23:06:31.689Z,12.27
2018-09-02T23:09:10.198Z,13.00
2018-09-02T23:11:46.904Z,13.00
2018-09-02T23:14:19.993Z,13.77
2018-09-02T23:16:52.644Z,13.27
2018-09-02T23:19:30.591Z,13.07
2018-09-02T23:22:08.547Z,13.50
2018-09-02T23:24:48.871Z,12.93
2018-09-02T23:27:26.903Z,12.90
2018-09-02T23:30:07.084Z,13.00
2018-09-02T23:32:46.402Z,12.77
2018-09-02T23:35:18.616Z,12.90
2018-09-02T23:37:52.432Z,13.13
2018-09-02T23:40:29.121Z,13.10
2018-09-02T23:43:04.247Z,12.40
2018-09-02T23:45:37.058Z,12.13
2018-09-02T23:48:15.028Z,11.63
2018-09-02T23:50:47.767Z,12.87
2018-09-02T23:53:20.837Z,12.00
2018-09-02T23:55:53.168Z,11.70
2018-09-02T23:58:25.606Z,11.03
